sensor_id;sensor_type;location;lat;lon;timestamp;P1;durP1;ratioP1;P2;durP2;ratioP2
78079;SDS011;67298;51.322;5.958;2023-11-19T00:01:25;1.9;;;1.1;;
78079;SDS011;67298;51.322;5.958;2023-11-19T00:06:04;3.1;;;1.4;;
78079;SDS011;67298;51.322;5.958;2023-11-19T00:10:43;0.8;;;0.8;;
78079;SDS011;67298;51.322;5.958;2023-11-19T00:15:23;2.0;;;1.2;;
78079;SDS011;67298;51.322;5.958;2023-11-19T00:20:02;0.9;;;0.9;;
78079;SDS011;67298;51.322;5.958;2023-11-19T00:24:42;1.7;;;1.1;;
78079;SDS011;67298;51.322;5.958;2023-11-19T00:29:22;1.6;;;1.2;;
78079;SDS011;67298;51.322;5.958;2023-11-19T00:34:01;2.8;;;1.1;;
78079;SDS011;67298;51.322;5.958;2023-11-19T00:38:40;2.6;;;1.1;;
78079;SDS011;67298;51.322;5.958;2023-11-19T00:43:20;1.4;;;0.9;;
78079;SDS011;67298;51.322;5.958;2023-11-19T00:47:59;1.5;;;0.9;;
78079;SDS011;67298;51.322;5.958;2023-11-19T00:52:38;2.7;;;1.5;;
78079;SDS011;67298;51.322;5.958;2023-11-19T00:57:18;1.1;;;1.0;;
78079;SDS011;67298;51.322;5.958;2023-11-19T01:01:57;1.6;;;1.2;;
78079;SDS011;67298;51.322;5.958;2023-11-19T01:06:37;1.6;;;1.0;;
78079;SDS011;67298;51.322;5.958;2023-11-19T01:11:18;1.6;;;1.5;;
78079;SDS011;67298;51.322;5.958;2023-11-19T01:15:57;1.8;;;1.5;;
78079;SDS011;67298;51.322;5.958;2023-11-19T01:20:37;1.5;;;1.2;;
78079;SDS011;67298;51.322;5.958;2023-11-19T01:25:17;1.7;;;1.3;;
78079;SDS011;67298;51.322;5.958;2023-11-19T01:29:56;3.0;;;1.4;;
78079;SDS011;67298;51.322;5.958;2023-11-19T01:34:36;2.6;;;1.1;;
78079;SDS011;67298;51.322;5.958;2023-11-19T01:39:17;2.0;;;1.3;;
78079;SDS011;67298;51.322;5.958;2023-11-19T01:43:56;4.6;;;1.9;;
78079;SDS011;67298;51.322;5.958;2023-11-19T01:48:35;2.6;;;1.2;;
78079;SDS011;67298;51.322;5.958;2023-11-19T01:53:15;2.3;;;1.6;;
78079;SDS011;67298;51.322;5.958;2023-11-19T01:57:54;3.5;;;2.0;;
78079;SDS011;67298;51.322;5.958;2023-11-19T02:02:34;4.0;;;2.0;;
78079;SDS011;67298;51.322;5.958;2023-11-19T02:07:13;2.8;;;1.9;;
78079;SDS011;67298;51.322;5.958;2023-11-19T02:11:52;1.5;;;1.4;;
78079;SDS011;67298;51.322;5.958;2023-11-19T02:16:32;3.4;;;1.9;;
78079;SDS011;67298;51.322;5.958;2023-11-19T02:21:11;5.0;;;2.3;;
78079;SDS011;67298;51.322;5.958;2023-11-19T02:25:50;2.5;;;2.3;;
78079;SDS011;67298;51.322;5.958;2023-11-19T02:30:30;3.1;;;2.3;;
78079;SDS011;67298;51.322;5.958;2023-11-19T02:35:09;3.9;;;3.1;;
78079;SDS011;67298;51.322;5.958;2023-11-19T02:39:49;4.2;;;2.9;;
78079;SDS011;67298;51.322;5.958;2023-11-19T02:44:28;4.7;;;2.9;;
78079;SDS011;67298;51.322;5.958;2023-11-19T02:49:07;4.4;;;3.2;;
78079;SDS011;67298;51.322;5.958;2023-11-19T02:53:47;3.9;;;2.9;;
78079;SDS011;67298;51.322;5.958;2023-11-19T02:58:27;3.7;;;2.8;;
78079;SDS011;67298;51.322;5.958;2023-11-19T03:03:06;4.5;;;3.4;;
78079;SDS011;67298;51.322;5.958;2023-11-19T03:07:47;4.3;;;3.2;;
78079;SDS011;67298;51.322;5.958;2023-11-19T03:12:26;5.0;;;4.3;;
78079;SDS011;67298;51.322;5.958;2023-11-19T03:17:06;5.9;;;4.1;;
78079;SDS011;67298;51.322;5.958;2023-11-19T03:21:58;5.1;;;3.9;;
78079;SDS011;67298;51.322;5.958;2023-11-19T03:26:37;3.9;;;3.1;;
78079;SDS011;67298;51.322;5.958;2023-11-19T03:31:20;7.3;;;4.6;;
78079;SDS011;67298;51.322;5.958;2023-11-19T03:35:59;6.8;;;4.1;;
78079;SDS011;67298;51.322;5.958;2023-11-19T03:40:40;7.1;;;4.5;;
78079;SDS011;67298;51.322;5.958;2023-11-19T03:45:19;6.0;;;4.2;;
78079;SDS011;67298;51.322;5.958;2023-11-19T03:49:59;6.9;;;4.3;;
78079;SDS011;67298;51.322;5.958;2023-11-19T03:54:38;6.4;;;4.8;;
78079;SDS011;67298;51.322;5.958;2023-11-19T03:59:18;5.0;;;3.9;;
78079;SDS011;67298;51.322;5.958;2023-11-19T04:03:57;5.9;;;4.6;;
78079;SDS011;67298;51.322;5.958;2023-11-19T04:08:37;7.3;;;4.7;;
78079;SDS011;67298;51.322;5.958;2023-11-19T04:13:16;5.0;;;4.3;;
78079;SDS011;67298;51.322;5.958;2023-11-19T04:17:55;6.9;;;4.4;;
78079;SDS011;67298;51.322;5.958;2023-11-19T04:22:35;4.7;;;4.2;;
78079;SDS011;67298;51.322;5.958;2023-11-19T04:27:15;6.6;;;4.6;;
78079;SDS011;67298;51.322;5.958;2023-11-19T04:31:54;7.1;;;5.0;;
78079;SDS011;67298;51.322;5.958;2023-11-19T04:36:34;6.8;;;4.6;;
78079;SDS011;67298;51.322;5.958;2023-11-19T04:41:13;6.9;;;5.2;;
78079;SDS011;67298;51.322;5.958;2023-11-19T04:45:52;6.7;;;5.1;;
78079;SDS011;67298;51.322;5.958;2023-11-19T04:50:32;7.5;;;4.2;;
78079;SDS011;67298;51.322;5.958;2023-11-19T04:55:11;8.1;;;5.1;;
78079;SDS011;67298;51.322;5.958;2023-11-19T04:59:51;5.7;;;5.1;;
78079;SDS011;67298;51.322;5.958;2023-11-19T05:04:30;2.4;;;2.1;;
78079;SDS011;67298;51.322;5.958;2023-11-19T05:09:09;6.4;;;5.3;;
78079;SDS011;67298;51.322;5.958;2023-11-19T05:13:49;7.6;;;5.5;;
78079;SDS011;67298;51.322;5.958;2023-11-19T05:18:28;7.8;;;5.5;;
78079;SDS011;67298;51.322;5.958;2023-11-19T05:23:07;7.6;;;5.0;;
78079;SDS011;67298;51.322;5.958;2023-11-19T05:27:47;9.3;;;5.0;;
78079;SDS011;67298;51.322;5.958;2023-11-19T05:32:26;7.1;;;4.8;;
78079;SDS011;67298;51.322;5.958;2023-11-19T05:37:06;6.5;;;5.0;;
78079;SDS011;67298;51.322;5.958;2023-11-19T05:41:45;7.5;;;5.6;;
78079;SDS011;67298;51.322;5.958;2023-11-19T05:46:25;8.9;;;5.1;;
78079;SDS011;67298;51.322;5.958;2023-11-19T05:51:04;5.4;;;4.4;;
78079;SDS011;67298;51.322;5.958;2023-11-19T05:55:43;7.7;;;4.7;;
78079;SDS011;67298;51.322;5.958;2023-11-19T06:00:23;7.6;;;4.4;;
78079;SDS011;67298;51.322;5.958;2023-11-19T06:05:03;3.4;;;2.9;;
78079;SDS011;67298;51.322;5.958;2023-11-19T06:09:42;6.6;;;4.8;;
78079;SDS011;67298;51.322;5.958;2023-11-19T06:14:21;7.5;;;5.3;;
78079;SDS011;67298;51.322;5.958;2023-11-19T06:19:01;7.3;;;5.1;;
78079;SDS011;67298;51.322;5.958;2023-11-19T06:23:40;6.7;;;4.5;;
78079;SDS011;67298;51.322;5.958;2023-11-19T06:28:20;4.5;;;3.6;;
78079;SDS011;67298;51.322;5.958;2023-11-19T06:32:59;6.5;;;4.8;;
78079;SDS011;67298;51.322;5.958;2023-11-19T06:37:38;6.6;;;4.1;;
78079;SDS011;67298;51.322;5.958;2023-11-19T06:42:18;7.0;;;4.5;;
78079;SDS011;67298;51.322;5.958;2023-11-19T06:46:57;5.9;;;4.2;;
78079;SDS011;67298;51.322;5.958;2023-11-19T06:51:37;4.4;;;3.6;;
78079;SDS011;67298;51.322;5.958;2023-11-19T06:56:16;6.9;;;4.0;;
78079;SDS011;67298;51.322;5.958;2023-11-19T07:00:56;4.9;;;3.8;;
78079;SDS011;67298;51.322;5.958;2023-11-19T07:05:35;7.2;;;3.1;;
78079;SDS011;67298;51.322;5.958;2023-11-19T07:10:17;7.3;;;3.9;;
78079;SDS011;67298;51.322;5.958;2023-11-19T07:14:56;5.6;;;3.7;;
78079;SDS011;67298;51.322;5.958;2023-11-19T07:19:36;5.7;;;4.0;;
78079;SDS011;67298;51.322;5.958;2023-11-19T07:24:15;5.8;;;3.3;;
78079;SDS011;67298;51.322;5.958;2023-11-19T07:28:55;6.1;;;3.6;;
78079;SDS011;67298;51.322;5.958;2023-11-19T07:33:34;4.9;;;3.2;;
78079;SDS011;67298;51.322;5.958;2023-11-19T07:38:14;6.7;;;3.1;;
78079;SDS011;67298;51.322;5.958;2023-11-19T07:42:53;2.6;;;2.1;;
78079;SDS011;67298;51.322;5.958;2023-11-19T07:47:33;5.7;;;3.0;;
78079;SDS011;67298;51.322;5.958;2023-11-19T07:52:12;7.9;;;3.1;;
78079;SDS011;67298;51.322;5.958;2023-11-19T07:56:52;6.5;;;3.3;;
78079;SDS011;67298;51.322;5.958;2023-11-19T08:01:31;4.8;;;3.1;;
78079;SDS011;67298;51.322;5.958;2023-11-19T08:06:10;2.2;;;1.4;;
78079;SDS011;67298;51.322;5.958;2023-11-19T08:10:50;5.6;;;2.7;;
78079;SDS011;67298;51.322;5.958;2023-11-19T08:15:29;5.4;;;2.1;;
78079;SDS011;67298;51.322;5.958;2023-11-19T08:20:09;5.4;;;2.6;;
78079;SDS011;67298;51.322;5.958;2023-11-19T08:24:48;5.8;;;2.7;;
78079;SDS011;67298;51.322;5.958;2023-11-19T08:29:27;4.5;;;3.0;;
78079;SDS011;67298;51.322;5.958;2023-11-19T08:34:07;4.8;;;2.8;;
78079;SDS011;67298;51.322;5.958;2023-11-19T08:38:46;5.1;;;3.0;;
78079;SDS011;67298;51.322;5.958;2023-11-19T08:43:26;2.8;;;2.6;;
78079;SDS011;67298;51.322;5.958;2023-11-19T08:48:05;4.1;;;2.2;;
78079;SDS011;67298;51.322;5.958;2023-11-19T08:52:45;2.3;;;1.9;;
78079;SDS011;67298;51.322;5.958;2023-11-19T08:57:24;3.7;;;2.4;;
78079;SDS011;67298;51.322;5.958;2023-11-19T09:02:03;3.4;;;2.0;;
78079;SDS011;67298;51.322;5.958;2023-11-19T09:06:43;4.0;;;1.7;;
78079;SDS011;67298;51.322;5.958;2023-11-19T09:11:22;3.5;;;1.9;;
78079;SDS011;67298;51.322;5.958;2023-11-19T09:16:01;2.8;;;1.6;;
78079;SDS011;67298;51.322;5.958;2023-11-19T09:20:41;2.6;;;1.6;;
78079;SDS011;67298;51.322;5.958;2023-11-19T09:25:20;6.3;;;2.0;;
78079;SDS011;67298;51.322;5.958;2023-11-19T09:30:00;3.0;;;1.7;;
78079;SDS011;67298;51.322;5.958;2023-11-19T09:34:39;2.6;;;1.4;;
78079;SDS011;67298;51.322;5.958;2023-11-19T09:39:19;2.9;;;1.2;;
78079;SDS011;67298;51.322;5.958;2023-11-19T09:43:58;1.3;;;1.2;;
78079;SDS011;67298;51.322;5.958;2023-11-19T09:48:38;2.1;;;1.4;;
78079;SDS011;67298;51.322;5.958;2023-11-19T09:53:17;3.9;;;1.1;;
78079;SDS011;67298;51.322;5.958;2023-11-19T09:57:56;3.8;;;1.2;;
78079;SDS011;67298;51.322;5.958;2023-11-19T10:02:36;1.8;;;1.1;;
78079;SDS011;67298;51.322;5.958;2023-11-19T10:07:15;1.6;;;1.1;;
78079;SDS011;67298;51.322;5.958;2023-11-19T10:11:54;4.5;;;1.3;;
78079;SDS011;67298;51.322;5.958;2023-11-19T10:16:34;3.7;;;1.1;;
78079;SDS011;67298;51.322;5.958;2023-11-19T10:21:13;0.0;;;0.0;;
78079;SDS011;67298;51.322;5.958;2023-11-19T10:25:53;4.0;;;1.1;;
78079;SDS011;67298;51.322;5.958;2023-11-19T10:30:32;0.4;;;0.3;;
78079;SDS011;67298;51.322;5.958;2023-11-19T10:35:11;1.5;;;0.7;;
78079;SDS011;67298;51.322;5.958;2023-11-19T10:39:51;2.7;;;0.9;;
78079;SDS011;67298;51.322;5.958;2023-11-19T10:44:30;2.4;;;0.7;;
78079;SDS011;67298;51.322;5.958;2023-11-19T10:49:10;1.8;;;0.7;;
78079;SDS011;67298;51.322;5.958;2023-11-19T10:53:54;0.5;;;0.5;;
78079;SDS011;67298;51.322;5.958;2023-11-19T10:58:33;1.8;;;0.6;;
78079;SDS011;67298;51.322;5.958;2023-11-19T11:03:12;1.4;;;0.5;;
78079;SDS011;67298;51.322;5.958;2023-11-19T11:07:52;0.2;;;0.2;;
78079;SDS011;67298;51.322;5.958;2023-11-19T11:12:31;2.5;;;0.5;;
78079;SDS011;67298;51.322;5.958;2023-11-19T11:17:11;1.4;;;0.5;;
78079;SDS011;67298;51.322;5.958;2023-11-19T11:21:51;0.6;;;0.5;;
78079;SDS011;67298;51.322;5.958;2023-11-19T11:26:35;1.4;;;0.4;;
78079;SDS011;67298;51.322;5.958;2023-11-19T11:31:15;2.8;;;0.7;;
78079;SDS011;67298;51.322;5.958;2023-11-19T11:35:54;4.4;;;0.6;;
78079;SDS011;67298;51.322;5.958;2023-11-19T11:40:33;2.3;;;0.5;;
78079;SDS011;67298;51.322;5.958;2023-11-19T11:45:13;0.1;;;0.1;;
78079;SDS011;67298;51.322;5.958;2023-11-19T11:49:55;1.9;;;0.4;;
78079;SDS011;67298;51.322;5.958;2023-11-19T11:54:34;4.4;;;0.5;;
78079;SDS011;67298;51.322;5.958;2023-11-19T11:59:16;3.1;;;0.6;;
78079;SDS011;67298;51.322;5.958;2023-11-19T12:03:56;1.2;;;0.5;;
78079;SDS011;67298;51.322;5.958;2023-11-19T12:08:36;0.3;;;0.3;;
78079;SDS011;67298;51.322;5.958;2023-11-19T12:13:15;2.8;;;0.6;;
78079;SDS011;67298;51.322;5.958;2023-11-19T12:17:55;2.4;;;0.7;;
78079;SDS011;67298;51.322;5.958;2023-11-19T12:22:35;3.5;;;1.4;;
78079;SDS011;67298;51.322;5.958;2023-11-19T12:27:21;3.1;;;1.3;;
78079;SDS011;67298;51.322;5.958;2023-11-19T12:32:08;3.7;;;0.9;;
78079;SDS011;67298;51.322;5.958;2023-11-19T12:36:53;3.0;;;1.0;;
78079;SDS011;67298;51.322;5.958;2023-11-19T12:41:39;3.7;;;1.6;;
78079;SDS011;67298;51.322;5.958;2023-11-19T12:46:18;8.5;;;1.7;;
78079;SDS011;67298;51.322;5.958;2023-11-19T12:51:30;4.4;;;1.6;;
78079;SDS011;67298;51.322;5.958;2023-11-19T12:56:42;4.8;;;2.3;;
78079;SDS011;67298;51.322;5.958;2023-11-19T13:01:33;0.3;;;0.3;;
78079;SDS011;67298;51.322;5.958;2023-11-19T13:06:30;3.7;;;2.1;;
78079;SDS011;67298;51.322;5.958;2023-11-19T13:11:09;3.6;;;2.1;;
78079;SDS011;67298;51.322;5.958;2023-11-19T13:15:49;6.0;;;2.9;;
78079;SDS011;67298;51.322;5.958;2023-11-19T13:20:44;5.7;;;2.5;;
78079;SDS011;67298;51.322;5.958;2023-11-19T13:25:24;4.2;;;2.5;;
78079;SDS011;67298;51.322;5.958;2023-11-19T13:30:07;6.2;;;3.0;;
78079;SDS011;67298;51.322;5.958;2023-11-19T13:34:49;8.2;;;2.8;;
78079;SDS011;67298;51.322;5.958;2023-11-19T13:39:29;6.8;;;3.0;;
78079;SDS011;67298;51.322;5.958;2023-11-19T13:44:08;7.1;;;2.7;;
78079;SDS011;67298;51.322;5.958;2023-11-19T13:48:47;4.1;;;2.7;;
78079;SDS011;67298;51.322;5.958;2023-11-19T13:53:27;3.4;;;2.6;;
78079;SDS011;67298;51.322;5.958;2023-11-19T13:58:20;5.0;;;2.3;;
78079;SDS011;67298;51.322;5.958;2023-11-19T14:03:03;1.1;;;1.1;;
78079;SDS011;67298;51.322;5.958;2023-11-19T14:07:42;6.9;;;2.7;;
78079;SDS011;67298;51.322;5.958;2023-11-19T14:12:21;6.3;;;2.8;;
78079;SDS011;67298;51.322;5.958;2023-11-19T14:17:01;7.6;;;3.2;;
78079;SDS011;67298;51.322;5.958;2023-11-19T14:21:40;6.6;;;2.9;;
78079;SDS011;67298;51.322;5.958;2023-11-19T14:26:20;2.4;;;2.1;;
78079;SDS011;67298;51.322;5.958;2023-11-19T14:30:59;4.9;;;3.0;;
78079;SDS011;67298;51.322;5.958;2023-11-19T14:35:39;3.4;;;2.4;;
78079;SDS011;67298;51.322;5.958;2023-11-19T14:40:18;3.8;;;2.9;;
78079;SDS011;67298;51.322;5.958;2023-11-19T14:44:57;7.5;;;3.0;;
78079;SDS011;67298;51.322;5.958;2023-11-19T14:49:37;4.9;;;2.8;;
78079;SDS011;67298;51.322;5.958;2023-11-19T14:54:17;6.0;;;2.8;;
78079;SDS011;67298;51.322;5.958;2023-11-19T14:58:56;7.2;;;2.8;;
78079;SDS011;67298;51.322;5.958;2023-11-19T15:03:36;3.8;;;1.9;;
78079;SDS011;67298;51.322;5.958;2023-11-19T15:08:16;4.4;;;2.7;;
78079;SDS011;67298;51.322;5.958;2023-11-19T15:12:55;4.1;;;2.6;;
78079;SDS011;67298;51.322;5.958;2023-11-19T15:17:34;5.5;;;3.1;;
78079;SDS011;67298;51.322;5.958;2023-11-19T15:22:14;4.6;;;2.5;;
78079;SDS011;67298;51.322;5.958;2023-11-19T15:26:53;3.1;;;2.8;;
78079;SDS011;67298;51.322;5.958;2023-11-19T15:31:33;4.2;;;2.9;;
78079;SDS011;67298;51.322;5.958;2023-11-19T15:36:12;3.2;;;2.5;;
78079;SDS011;67298;51.322;5.958;2023-11-19T15:40:51;1.1;;;1.1;;
78079;SDS011;67298;51.322;5.958;2023-11-19T15:45:31;8.6;;;2.9;;
78079;SDS011;67298;51.322;5.958;2023-11-19T15:50:10;3.9;;;3.0;;
78079;SDS011;67298;51.322;5.958;2023-11-19T15:54:50;5.8;;;3.3;;
78079;SDS011;67298;51.322;5.958;2023-11-19T15:59:29;7.2;;;4.1;;
78079;SDS011;67298;51.322;5.958;2023-11-19T16:04:09;15.9;;;4.5;;
78079;SDS011;67298;51.322;5.958;2023-11-19T16:08:48;8.5;;;3.8;;
78079;SDS011;67298;51.322;5.958;2023-11-19T16:13:28;8.5;;;4.0;;
78079;SDS011;67298;51.322;5.958;2023-11-19T16:18:07;7.7;;;4.2;;
78079;SDS011;67298;51.322;5.958;2023-11-19T16:22:46;6.3;;;4.6;;
78079;SDS011;67298;51.322;5.958;2023-11-19T16:27:26;5.1;;;3.1;;
78079;SDS011;67298;51.322;5.958;2023-11-19T16:32:05;7.5;;;4.2;;
78079;SDS011;67298;51.322;5.958;2023-11-19T16:36:45;11.0;;;3.6;;
78079;SDS011;67298;51.322;5.958;2023-11-19T16:41:24;6.8;;;4.4;;
78079;SDS011;67298;51.322;5.958;2023-11-19T16:46:04;8.1;;;4.7;;
78079;SDS011;67298;51.322;5.958;2023-11-19T16:50:43;8.7;;;3.8;;
78079;SDS011;67298;51.322;5.958;2023-11-19T16:55:23;9.4;;;5.2;;
78079;SDS011;67298;51.322;5.958;2023-11-19T17:00:02;11.7;;;5.6;;
78079;SDS011;67298;51.322;5.958;2023-11-19T17:04:42;9.4;;;3.1;;
78079;SDS011;67298;51.322;5.958;2023-11-19T17:09:21;10.3;;;5.0;;
78079;SDS011;67298;51.322;5.958;2023-11-19T17:14:01;9.7;;;5.5;;
78079;SDS011;67298;51.322;5.958;2023-11-19T17:18:40;10.2;;;5.4;;
78079;SDS011;67298;51.322;5.958;2023-11-19T17:23:19;9.9;;;4.9;;
78079;SDS011;67298;51.322;5.958;2023-11-19T17:27:59;8.0;;;4.6;;
78079;SDS011;67298;51.322;5.958;2023-11-19T17:32:38;7.8;;;4.8;;
78079;SDS011;67298;51.322;5.958;2023-11-19T17:37:21;8.9;;;5.6;;
78079;SDS011;67298;51.322;5.958;2023-11-19T17:42:00;5.9;;;3.2;;
78079;SDS011;67298;51.322;5.958;2023-11-19T17:46:39;9.8;;;5.6;;
78079;SDS011;67298;51.322;5.958;2023-11-19T17:51:19;11.1;;;5.4;;
78079;SDS011;67298;51.322;5.958;2023-11-19T17:55:58;12.9;;;6.0;;
78079;SDS011;67298;51.322;5.958;2023-11-19T18:00:38;8.9;;;5.0;;
78079;SDS011;67298;51.322;5.958;2023-11-19T18:05:17;9.0;;;5.9;;
78079;SDS011;67298;51.322;5.958;2023-11-19T18:09:57;11.3;;;5.8;;
78079;SDS011;67298;51.322;5.958;2023-11-19T18:14:36;11.3;;;6.1;;
78079;SDS011;67298;51.322;5.958;2023-11-19T18:19:16;8.0;;;3.2;;
78079;SDS011;67298;51.322;5.958;2023-11-19T18:23:55;9.6;;;5.4;;
78079;SDS011;67298;51.322;5.958;2023-11-19T18:28:35;8.7;;;4.4;;
78079;SDS011;67298;51.322;5.958;2023-11-19T18:33:14;11.0;;;5.6;;
78079;SDS011;67298;51.322;5.958;2023-11-19T18:37:53;9.5;;;5.5;;
78079;SDS011;67298;51.322;5.958;2023-11-19T18:42:33;7.3;;;4.4;;
78079;SDS011;67298;51.322;5.958;2023-11-19T18:47:12;10.6;;;5.9;;
78079;SDS011;67298;51.322;5.958;2023-11-19T18:51:52;10.2;;;5.1;;
78079;SDS011;67298;51.322;5.958;2023-11-19T18:56:31;11.0;;;5.9;;
78079;SDS011;67298;51.322;5.958;2023-11-19T19:01:10;10.7;;;5.1;;
78079;SDS011;67298;51.322;5.958;2023-11-19T19:05:50;10.9;;;5.9;;
78079;SDS011;67298;51.322;5.958;2023-11-19T19:10:29;12.4;;;6.6;;
78079;SDS011;67298;51.322;5.958;2023-11-19T19:15:08;10.0;;;5.6;;
78079;SDS011;67298;51.322;5.958;2023-11-19T19:19:48;8.6;;;3.7;;
78079;SDS011;67298;51.322;5.958;2023-11-19T19:24:27;13.2;;;5.5;;
78079;SDS011;67298;51.322;5.958;2023-11-19T19:29:07;7.8;;;4.4;;
78079;SDS011;67298;51.322;5.958;2023-11-19T19:33:46;9.7;;;5.2;;
78079;SDS011;67298;51.322;5.958;2023-11-19T19:38:25;7.5;;;4.9;;
78079;SDS011;67298;51.322;5.958;2023-11-19T19:43:05;6.7;;;3.7;;
78079;SDS011;67298;51.322;5.958;2023-11-19T19:47:44;9.7;;;5.1;;
78079;SDS011;67298;51.322;5.958;2023-11-19T19:52:23;11.7;;;4.3;;
78079;SDS011;67298;51.322;5.958;2023-11-19T19:57:03;10.7;;;5.3;;
78079;SDS011;67298;51.322;5.958;2023-11-19T20:01:42;9.3;;;4.5;;
78079;SDS011;67298;51.322;5.958;2023-11-19T20:06:22;6.4;;;4.0;;
78079;SDS011;67298;51.322;5.958;2023-11-19T20:11:01;8.7;;;4.4;;
78079;SDS011;67298;51.322;5.958;2023-11-19T20:15:41;9.3;;;4.9;;
78079;SDS011;67298;51.322;5.958;2023-11-19T20:20:21;4.8;;;3.1;;
78079;SDS011;67298;51.322;5.958;2023-11-19T20:25:00;8.3;;;4.2;;
78079;SDS011;67298;51.322;5.958;2023-11-19T20:29:40;8.1;;;3.7;;
78079;SDS011;67298;51.322;5.958;2023-11-19T20:34:19;8.7;;;4.5;;
78079;SDS011;67298;51.322;5.958;2023-11-19T20:38:59;5.2;;;3.4;;
78079;SDS011;67298;51.322;5.958;2023-11-19T20:43:38;12.2;;;4.4;;
78079;SDS011;67298;51.322;5.958;2023-11-19T20:48:18;9.6;;;4.3;;
78079;SDS011;67298;51.322;5.958;2023-11-19T20:52:57;8.3;;;4.4;;
78079;SDS011;67298;51.322;5.958;2023-11-19T20:57:36;6.1;;;5.7;;
78079;SDS011;67298;51.322;5.958;2023-11-19T21:02:16;9.0;;;4.5;;
78079;SDS011;67298;51.322;5.958;2023-11-19T21:06:55;8.0;;;3.3;;
78079;SDS011;67298;51.322;5.958;2023-11-19T21:11:35;8.9;;;4.0;;
78079;SDS011;67298;51.322;5.958;2023-11-19T21:16:14;5.2;;;3.6;;
78079;SDS011;67298;51.322;5.958;2023-11-19T21:20:53;3.9;;;3.5;;
78079;SDS011;67298;51.322;5.958;2023-11-19T21:25:33;8.5;;;3.8;;
78079;SDS011;67298;51.322;5.958;2023-11-19T21:30:12;5.4;;;3.1;;
78079;SDS011;67298;51.322;5.958;2023-11-19T21:34:52;7.1;;;3.8;;
78079;SDS011;67298;51.322;5.958;2023-11-19T21:39:31;6.6;;;3.3;;
78079;SDS011;67298;51.322;5.958;2023-11-19T21:44:10;7.0;;;3.1;;
78079;SDS011;67298;51.322;5.958;2023-11-19T21:48:50;8.7;;;4.2;;
78079;SDS011;67298;51.322;5.958;2023-11-19T21:53:29;6.8;;;3.3;;
78079;SDS011;67298;51.322;5.958;2023-11-19T21:58:09;8.7;;;3.7;;
78079;SDS011;67298;51.322;5.958;2023-11-19T22:02:48;7.4;;;4.3;;
78079;SDS011;67298;51.322;5.958;2023-11-19T22:07:27;6.7;;;3.1;;
78079;SDS011;67298;51.322;5.958;2023-11-19T22:12:07;7.4;;;3.5;;
78079;SDS011;67298;51.322;5.958;2023-11-19T22:16:46;7.4;;;3.4;;
78079;SDS011;67298;51.322;5.958;2023-11-19T22:21:26;5.8;;;2.9;;
78079;SDS011;67298;51.322;5.958;2023-11-19T22:26:05;8.1;;;3.6;;
78079;SDS011;67298;51.322;5.958;2023-11-19T22:30:45;7.3;;;3.7;;
78079;SDS011;67298;51.322;5.958;2023-11-19T22:35:24;8.6;;;3.8;;
78079;SDS011;67298;51.322;5.958;2023-11-19T22:40:03;6.1;;;3.3;;
78079;SDS011;67298;51.322;5.958;2023-11-19T22:44:43;3.7;;;2.5;;
78079;SDS011;67298;51.322;5.958;2023-11-19T22:49:23;5.8;;;3.0;;
78079;SDS011;67298;51.322;5.958;2023-11-19T22:54:02;6.5;;;3.4;;
78079;SDS011;67298;51.322;5.958;2023-11-19T22:58:42;2.8;;;2.6;;
78079;SDS011;67298;51.322;5.958;2023-11-19T23:03:21;4.4;;;3.0;;
78079;SDS011;67298;51.322;5.958;2023-11-19T23:08:00;4.9;;;2.4;;
78079;SDS011;67298;51.322;5.958;2023-11-19T23:12:40;4.9;;;2.9;;
78079;SDS011;67298;51.322;5.958;2023-11-19T23:17:19;10.3;;;2.9;;
78079;SDS011;67298;51.322;5.958;2023-11-19T23:21:58;5.8;;;3.4;;
78079;SDS011;67298;51.322;5.958;2023-11-19T23:26:38;6.5;;;3.1;;
78079;SDS011;67298;51.322;5.958;2023-11-19T23:31:17;6.8;;;3.0;;
78079;SDS011;67298;51.322;5.958;2023-11-19T23:35:57;0.4;;;0.4;;
78079;SDS011;67298;51.322;5.958;2023-11-19T23:40:36;6.9;;;2.6;;
78079;SDS011;67298;51.322;5.958;2023-11-19T23:45:16;5.3;;;2.4;;
78079;SDS011;67298;51.322;5.958;2023-11-19T23:49:55;6.0;;;2.9;;
78079;SDS011;67298;51.322;5.958;2023-11-19T23:54:35;5.1;;;2.4;;
78079;SDS011;67298;51.322;5.958;2023-11-19T23:59:14;3.8;;;2.8;;
